sensor_id;sensor_type;location;lat;lon;timestamp;P1;durP1;ratioP1;P2;durP2;ratioP2
17993;SDS011;9122;48.406;9.984;2023-05-31T00:02:30;2.30;;;2.10;;
17993;SDS011;9122;48.406;9.984;2023-05-31T00:05:15;3.65;;;2.13;;
17993;SDS011;9122;48.406;9.984;2023-05-31T00:07:59;2.13;;;2.03;;
17993;SDS011;9122;48.406;9.984;2023-05-31T00:10:43;2.40;;;2.20;;
17993;SDS011;9122;48.406;9.984;2023-05-31T00:13:27;5.38;;;3.15;;
17993;SDS011;9122;48.406;9.984;2023-05-31T00:16:12;2.63;;;2.22;;
17993;SDS011;9122;48.406;9.984;2023-05-31T00:18:57;1.92;;;1.73;;
17993;SDS011;9122;48.406;9.984;2023-05-31T00:21:43;2.57;;;1.73;;
17993;SDS011;9122;48.406;9.984;2023-05-31T00:24:29;1.90;;;1.73;;
17993;SDS011;9122;48.406;9.984;2023-05-31T00:27:13;2.30;;;2.10;;
17993;SDS011;9122;48.406;9.984;2023-05-31T00:29:58;2.40;;;1.90;;
17993;SDS011;9122;48.406;9.984;2023-05-31T00:32:43;1.87;;;1.67;;
17993;SDS011;9122;48.406;9.984;2023-05-31T00:35:27;2.00;;;1.80;;
17993;SDS011;9122;48.406;9.984;2023-05-31T00:38:12;1.90;;;1.80;;
17993;SDS011;9122;48.406;9.984;2023-05-31T00:40:57;2.23;;;1.93;;
17993;SDS011;9122;48.406;9.984;2023-05-31T00:43:42;3.30;;;1.97;;
17993;SDS011;9122;48.406;9.984;2023-05-31T00:49:16;3.20;;;2.10;;
17993;SDS011;9122;48.406;9.984;2023-05-31T00:52:01;4.40;;;2.30;;
17993;SDS011;9122;48.406;9.984;2023-05-31T00:54:46;2.10;;;1.90;;
17993;SDS011;9122;48.406;9.984;2023-05-31T00:57:30;2.33;;;2.00;;
17993;SDS011;9122;48.406;9.984;2023-05-31T01:00:14;2.60;;;2.00;;
17993;SDS011;9122;48.406;9.984;2023-05-31T01:02:59;2.20;;;2.00;;
17993;SDS011;9122;48.406;9.984;2023-05-31T01:05:47;1.93;;;1.70;;
17993;SDS011;9122;48.406;9.984;2023-05-31T01:08:31;2.37;;;1.93;;
17993;SDS011;9122;48.406;9.984;2023-05-31T01:14:13;2.87;;;2.30;;
17993;SDS011;9122;48.406;9.984;2023-05-31T01:20:07;4.33;;;2.10;;
17993;SDS011;9122;48.406;9.984;2023-05-31T01:23:56;2.47;;;2.13;;
17993;SDS011;9122;48.406;9.984;2023-05-31T01:26:38;1.93;;;1.83;;
17993;SDS011;9122;48.406;9.984;2023-05-31T01:29:29;3.60;;;2.13;;
17993;SDS011;9122;48.406;9.984;2023-05-31T01:32:16;2.40;;;2.20;;
17993;SDS011;9122;48.406;9.984;2023-05-31T01:35:02;3.80;;;2.27;;
17993;SDS011;9122;48.406;9.984;2023-05-31T01:37:49;1.83;;;1.70;;
17993;SDS011;9122;48.406;9.984;2023-05-31T01:40:34;2.00;;;1.83;;
17993;SDS011;9122;48.406;9.984;2023-05-31T01:43:19;3.00;;;1.70;;
17993;SDS011;9122;48.406;9.984;2023-05-31T01:46:04;2.90;;;2.20;;
17993;SDS011;9122;48.406;9.984;2023-05-31T01:48:49;3.10;;;2.47;;
17993;SDS011;9122;48.406;9.984;2023-05-31T01:51:35;3.97;;;1.93;;
17993;SDS011;9122;48.406;9.984;2023-05-31T01:54:21;2.83;;;1.90;;
17993;SDS011;9122;48.406;9.984;2023-05-31T01:57:05;2.93;;;2.60;;
17993;SDS011;9122;48.406;9.984;2023-05-31T01:59:51;2.37;;;2.17;;
17993;SDS011;9122;48.406;9.984;2023-05-31T02:02:36;2.07;;;1.90;;
17993;SDS011;9122;48.406;9.984;2023-05-31T02:05:21;4.43;;;2.27;;
17993;SDS011;9122;48.406;9.984;2023-05-31T02:08:06;2.33;;;2.03;;
17993;SDS011;9122;48.406;9.984;2023-05-31T02:10:50;2.77;;;1.90;;
17993;SDS011;9122;48.406;9.984;2023-05-31T02:13:35;2.00;;;1.80;;
17993;SDS011;9122;48.406;9.984;2023-05-31T02:16:20;3.13;;;2.40;;
17993;SDS011;9122;48.406;9.984;2023-05-31T02:19:04;3.17;;;1.80;;
17993;SDS011;9122;48.406;9.984;2023-05-31T02:21:49;2.57;;;1.80;;
17993;SDS011;9122;48.406;9.984;2023-05-31T02:24:33;2.47;;;2.27;;
17993;SDS011;9122;48.406;9.984;2023-05-31T02:27:17;2.60;;;2.20;;
17993;SDS011;9122;48.406;9.984;2023-05-31T02:30:03;2.13;;;1.73;;
17993;SDS011;9122;48.406;9.984;2023-05-31T02:32:50;2.53;;;2.03;;
17993;SDS011;9122;48.406;9.984;2023-05-31T02:35:35;2.70;;;1.90;;
17993;SDS011;9122;48.406;9.984;2023-05-31T02:38:19;2.93;;;2.07;;
17993;SDS011;9122;48.406;9.984;2023-05-31T02:41:05;2.07;;;1.97;;
17993;SDS011;9122;48.406;9.984;2023-05-31T02:43:49;3.30;;;2.03;;
17993;SDS011;9122;48.406;9.984;2023-05-31T02:46:34;2.30;;;2.10;;
17993;SDS011;9122;48.406;9.984;2023-05-31T02:49:18;1.97;;;1.87;;
17993;SDS011;9122;48.406;9.984;2023-05-31T02:52:04;2.60;;;2.40;;
17993;SDS011;9122;48.406;9.984;2023-05-31T02:54:49;3.67;;;2.07;;
17993;SDS011;9122;48.406;9.984;2023-05-31T02:57:34;2.03;;;1.90;;
17993;SDS011;9122;48.406;9.984;2023-05-31T03:00:18;1.93;;;1.80;;
17993;SDS011;9122;48.406;9.984;2023-05-31T03:03:04;2.53;;;2.30;;
17993;SDS011;9122;48.406;9.984;2023-05-31T03:05:48;2.20;;;2.00;;
17993;SDS011;9122;48.406;9.984;2023-05-31T03:08:33;2.23;;;1.83;;
17993;SDS011;9122;48.406;9.984;2023-05-31T03:11:17;1.90;;;1.80;;
17993;SDS011;9122;48.406;9.984;2023-05-31T03:14:02;4.00;;;2.17;;
17993;SDS011;9122;48.406;9.984;2023-05-31T03:16:46;2.27;;;2.07;;
17993;SDS011;9122;48.406;9.984;2023-05-31T03:19:30;2.10;;;2.00;;
17993;SDS011;9122;48.406;9.984;2023-05-31T03:22:15;1.97;;;1.87;;
17993;SDS011;9122;48.406;9.984;2023-05-31T03:24:59;2.97;;;2.30;;
17993;SDS011;9122;48.406;9.984;2023-05-31T03:27:44;1.83;;;1.73;;
17993;SDS011;9122;48.406;9.984;2023-05-31T03:30:28;2.97;;;2.00;;
17993;SDS011;9122;48.406;9.984;2023-05-31T03:33:13;2.23;;;1.70;;
17993;SDS011;9122;48.406;9.984;2023-05-31T03:35:58;3.50;;;2.10;;
17993;SDS011;9122;48.406;9.984;2023-05-31T03:38:42;2.10;;;2.00;;
17993;SDS011;9122;48.406;9.984;2023-05-31T03:41:26;1.80;;;1.70;;
17993;SDS011;9122;48.406;9.984;2023-05-31T03:44:11;3.20;;;2.10;;
17993;SDS011;9122;48.406;9.984;2023-05-31T03:46:55;5.40;;;2.13;;
17993;SDS011;9122;48.406;9.984;2023-05-31T03:49:41;1.87;;;1.77;;
17993;SDS011;9122;48.406;9.984;2023-05-31T03:52:25;5.87;;;1.90;;
17993;SDS011;9122;48.406;9.984;2023-05-31T03:55:10;2.17;;;1.90;;
17993;SDS011;9122;48.406;9.984;2023-05-31T03:57:54;1.77;;;1.67;;
17993;SDS011;9122;48.406;9.984;2023-05-31T04:00:39;2.30;;;2.10;;
17993;SDS011;9122;48.406;9.984;2023-05-31T04:03:25;2.40;;;2.00;;
17993;SDS011;9122;48.406;9.984;2023-05-31T04:06:09;3.33;;;2.00;;
17993;SDS011;9122;48.406;9.984;2023-05-31T04:08:54;2.73;;;1.80;;
17993;SDS011;9122;48.406;9.984;2023-05-31T04:11:38;2.63;;;1.77;;
17993;SDS011;9122;48.406;9.984;2023-05-31T04:14:22;2.33;;;1.80;;
17993;SDS011;9122;48.406;9.984;2023-05-31T04:17:10;2.90;;;1.90;;
17993;SDS011;9122;48.406;9.984;2023-05-31T04:19:54;2.53;;;2.33;;
17993;SDS011;9122;48.406;9.984;2023-05-31T04:22:38;2.30;;;1.83;;
17993;SDS011;9122;48.406;9.984;2023-05-31T04:25:23;2.33;;;1.50;;
17993;SDS011;9122;48.406;9.984;2023-05-31T04:28:08;3.00;;;2.37;;
17993;SDS011;9122;48.406;9.984;2023-05-31T04:30:52;3.40;;;2.10;;
17993;SDS011;9122;48.406;9.984;2023-05-31T04:33:37;3.47;;;1.77;;
17993;SDS011;9122;48.406;9.984;2023-05-31T04:36:23;1.83;;;1.70;;
17993;SDS011;9122;48.406;9.984;2023-05-31T04:39:08;3.00;;;1.80;;
17993;SDS011;9122;48.406;9.984;2023-05-31T04:41:58;3.00;;;2.27;;
17993;SDS011;9122;48.406;9.984;2023-05-31T04:44:43;1.77;;;1.67;;
17993;SDS011;9122;48.406;9.984;2023-05-31T04:47:27;2.70;;;1.70;;
17993;SDS011;9122;48.406;9.984;2023-05-31T04:50:12;3.10;;;2.43;;
17993;SDS011;9122;48.406;9.984;2023-05-31T04:52:56;2.37;;;2.10;;
17993;SDS011;9122;48.406;9.984;2023-05-31T04:55:40;2.43;;;2.23;;
17993;SDS011;9122;48.406;9.984;2023-05-31T04:58:24;2.07;;;1.87;;
17993;SDS011;9122;48.406;9.984;2023-05-31T05:01:09;1.83;;;1.73;;
17993;SDS011;9122;48.406;9.984;2023-05-31T05:03:53;2.17;;;2.00;;
17993;SDS011;9122;48.406;9.984;2023-05-31T05:06:37;2.47;;;2.27;;
17993;SDS011;9122;48.406;9.984;2023-05-31T05:09:23;2.93;;;2.27;;
17993;SDS011;9122;48.406;9.984;2023-05-31T05:12:09;2.70;;;2.20;;
17993;SDS011;9122;48.406;9.984;2023-05-31T05:14:53;3.10;;;2.13;;
17993;SDS011;9122;48.406;9.984;2023-05-31T05:17:37;3.67;;;2.33;;
17993;SDS011;9122;48.406;9.984;2023-05-31T05:20:22;2.10;;;1.83;;
17993;SDS011;9122;48.406;9.984;2023-05-31T05:23:07;2.20;;;1.90;;
17993;SDS011;9122;48.406;9.984;2023-05-31T05:25:51;5.13;;;2.03;;
17993;SDS011;9122;48.406;9.984;2023-05-31T05:28:35;2.07;;;1.97;;
17993;SDS011;9122;48.406;9.984;2023-05-31T05:31:19;2.10;;;2.00;;
17993;SDS011;9122;48.406;9.984;2023-05-31T05:34:03;2.97;;;2.20;;
17993;SDS011;9122;48.406;9.984;2023-05-31T05:36:48;1.87;;;1.77;;
17993;SDS011;9122;48.406;9.984;2023-05-31T05:39:32;4.10;;;1.90;;
17993;SDS011;9122;48.406;9.984;2023-05-31T05:42:17;2.93;;;2.03;;
17993;SDS011;9122;48.406;9.984;2023-05-31T05:45:05;3.10;;;2.47;;
17993;SDS011;9122;48.406;9.984;2023-05-31T05:47:53;2.23;;;2.03;;
17993;SDS011;9122;48.406;9.984;2023-05-31T05:50:39;5.30;;;2.70;;
17993;SDS011;9122;48.406;9.984;2023-05-31T05:53:24;2.87;;;2.03;;
17993;SDS011;9122;48.406;9.984;2023-05-31T05:56:09;2.30;;;2.10;;
17993;SDS011;9122;48.406;9.984;2023-05-31T05:58:55;5.93;;;2.73;;
17993;SDS011;9122;48.406;9.984;2023-05-31T06:01:39;3.30;;;1.80;;
17993;SDS011;9122;48.406;9.984;2023-05-31T06:04:24;3.03;;;2.50;;
17993;SDS011;9122;48.406;9.984;2023-05-31T06:07:08;2.70;;;2.40;;
17993;SDS011;9122;48.406;9.984;2023-05-31T06:09:52;4.37;;;2.20;;
17993;SDS011;9122;48.406;9.984;2023-05-31T06:12:37;3.57;;;2.33;;
17993;SDS011;9122;48.406;9.984;2023-05-31T06:15:21;2.10;;;1.90;;
17993;SDS011;9122;48.406;9.984;2023-05-31T06:18:05;4.10;;;2.07;;
17993;SDS011;9122;48.406;9.984;2023-05-31T06:20:50;3.50;;;2.33;;
17993;SDS011;9122;48.406;9.984;2023-05-31T06:23:34;1.80;;;1.70;;
17993;SDS011;9122;48.406;9.984;2023-05-31T06:26:19;5.07;;;2.57;;
17993;SDS011;9122;48.406;9.984;2023-05-31T06:29:03;4.27;;;2.20;;
17993;SDS011;9122;48.406;9.984;2023-05-31T06:31:48;4.70;;;2.67;;
17993;SDS011;9122;48.406;9.984;2023-05-31T06:34:32;2.40;;;2.20;;
17993;SDS011;9122;48.406;9.984;2023-05-31T06:37:17;3.27;;;2.37;;
17993;SDS011;9122;48.406;9.984;2023-05-31T06:40:01;2.50;;;2.27;;
17993;SDS011;9122;48.406;9.984;2023-05-31T06:42:46;2.60;;;2.37;;
17993;SDS011;9122;48.406;9.984;2023-05-31T06:45:30;3.47;;;2.60;;
17993;SDS011;9122;48.406;9.984;2023-05-31T06:48:15;2.73;;;2.30;;
17993;SDS011;9122;48.406;9.984;2023-05-31T06:51:00;4.40;;;2.60;;
17993;SDS011;9122;48.406;9.984;2023-05-31T06:53:44;3.77;;;2.40;;
17993;SDS011;9122;48.406;9.984;2023-05-31T06:56:28;2.80;;;2.50;;
17993;SDS011;9122;48.406;9.984;2023-05-31T06:59:13;2.87;;;2.60;;
17993;SDS011;9122;48.406;9.984;2023-05-31T07:01:58;5.83;;;2.67;;
17993;SDS011;9122;48.406;9.984;2023-05-31T07:04:42;2.67;;;2.17;;
17993;SDS011;9122;48.406;9.984;2023-05-31T07:07:27;5.00;;;2.70;;
17993;SDS011;9122;48.406;9.984;2023-05-31T07:10:11;2.87;;;1.97;;
17993;SDS011;9122;48.406;9.984;2023-05-31T07:12:56;4.60;;;2.17;;
17993;SDS011;9122;48.406;9.984;2023-05-31T07:15:49;2.77;;;2.40;;
17993;SDS011;9122;48.406;9.984;2023-05-31T07:18:36;6.70;;;2.20;;
17993;SDS011;9122;48.406;9.984;2023-05-31T07:21:21;2.67;;;2.38;;
17993;SDS011;9122;48.406;9.984;2023-05-31T07:24:05;5.10;;;2.53;;
17993;SDS011;9122;48.406;9.984;2023-05-31T07:26:50;2.75;;;2.55;;
17993;SDS011;9122;48.406;9.984;2023-05-31T07:29:34;4.65;;;2.88;;
17993;SDS011;9122;48.406;9.984;2023-05-31T07:32:19;2.92;;;2.38;;
17993;SDS011;9122;48.406;9.984;2023-05-31T07:35:03;5.82;;;2.67;;
17993;SDS011;9122;48.406;9.984;2023-05-31T07:37:48;2.63;;;1.90;;
17993;SDS011;9122;48.406;9.984;2023-05-31T07:40:32;5.22;;;2.53;;
17993;SDS011;9122;48.406;9.984;2023-05-31T07:43:17;2.10;;;2.00;;
17993;SDS011;9122;48.406;9.984;2023-05-31T07:46:04;5.68;;;2.00;;
17993;SDS011;9122;48.406;9.984;2023-05-31T07:48:48;6.35;;;2.45;;
17993;SDS011;9122;48.406;9.984;2023-05-31T07:51:33;2.70;;;2.50;;
17993;SDS011;9122;48.406;9.984;2023-05-31T07:54:19;3.03;;;2.30;;
17993;SDS011;9122;48.406;9.984;2023-05-31T07:57:04;2.50;;;2.28;;
17993;SDS011;9122;48.406;9.984;2023-05-31T07:59:49;3.63;;;2.30;;
17993;SDS011;9122;48.406;9.984;2023-05-31T08:02:37;2.50;;;2.30;;
17993;SDS011;9122;48.406;9.984;2023-05-31T08:05:21;3.60;;;2.55;;
17993;SDS011;9122;48.406;9.984;2023-05-31T08:08:06;7.07;;;2.22;;
17993;SDS011;9122;48.406;9.984;2023-05-31T08:10:50;4.63;;;2.42;;
17993;SDS011;9122;48.406;9.984;2023-05-31T08:13:35;5.32;;;2.33;;
17993;SDS011;9122;48.406;9.984;2023-05-31T08:16:20;5.57;;;2.90;;
17993;SDS011;9122;48.406;9.984;2023-05-31T08:19:05;2.67;;;2.47;;
17993;SDS011;9122;48.406;9.984;2023-05-31T08:21:50;4.15;;;2.08;;
17993;SDS011;9122;48.406;9.984;2023-05-31T08:24:35;2.55;;;2.20;;
17993;SDS011;9122;48.406;9.984;2023-05-31T08:27:20;3.00;;;2.30;;
17993;SDS011;9122;48.406;9.984;2023-05-31T08:30:04;2.42;;;2.20;;
17993;SDS011;9122;48.406;9.984;2023-05-31T08:32:50;4.85;;;2.83;;
17993;SDS011;9122;48.406;9.984;2023-05-31T08:35:34;2.67;;;2.47;;
17993;SDS011;9122;48.406;9.984;2023-05-31T08:38:19;2.60;;;2.30;;
17993;SDS011;9122;48.406;9.984;2023-05-31T08:41:03;3.20;;;2.80;;
17993;SDS011;9122;48.406;9.984;2023-05-31T08:43:48;2.40;;;2.20;;
17993;SDS011;9122;48.406;9.984;2023-05-31T08:46:33;5.20;;;2.67;;
17993;SDS011;9122;48.406;9.984;2023-05-31T08:49:18;3.58;;;2.35;;
17993;SDS011;9122;48.406;9.984;2023-05-31T08:52:03;3.92;;;3.45;;
17993;SDS011;9122;48.406;9.984;2023-05-31T08:54:49;3.05;;;2.47;;
17993;SDS011;9122;48.406;9.984;2023-05-31T08:57:34;3.38;;;2.17;;
17993;SDS011;9122;48.406;9.984;2023-05-31T09:00:20;3.25;;;2.50;;
17993;SDS011;9122;48.406;9.984;2023-05-31T09:03:06;4.45;;;2.80;;
17993;SDS011;9122;48.406;9.984;2023-05-31T09:05:50;5.10;;;2.45;;
17993;SDS011;9122;48.406;9.984;2023-05-31T09:08:37;2.75;;;2.55;;
17993;SDS011;9122;48.406;9.984;2023-05-31T09:11:22;5.10;;;2.88;;
17993;SDS011;9122;48.406;9.984;2023-05-31T09:14:07;2.70;;;2.50;;
17993;SDS011;9122;48.406;9.984;2023-05-31T09:16:54;3.05;;;2.78;;
17993;SDS011;9122;48.406;9.984;2023-05-31T09:19:49;6.45;;;2.42;;
17993;SDS011;9122;48.406;9.984;2023-05-31T09:22:35;3.25;;;2.40;;
17993;SDS011;9122;48.406;9.984;2023-05-31T09:25:21;3.25;;;2.55;;
17993;SDS011;9122;48.406;9.984;2023-05-31T09:28:06;5.78;;;3.15;;
17993;SDS011;9122;48.406;9.984;2023-05-31T09:31:05;3.55;;;2.55;;
17993;SDS011;9122;48.406;9.984;2023-05-31T09:33:50;3.60;;;2.97;;
17993;SDS011;9122;48.406;9.984;2023-05-31T09:36:35;5.20;;;2.88;;
17993;SDS011;9122;48.406;9.984;2023-05-31T09:39:20;3.00;;;2.70;;
17993;SDS011;9122;48.406;9.984;2023-05-31T09:42:11;7.00;;;2.50;;
17993;SDS011;9122;48.406;9.984;2023-05-31T09:44:58;3.88;;;2.63;;
17993;SDS011;9122;48.406;9.984;2023-05-31T09:47:43;5.30;;;2.75;;
17993;SDS011;9122;48.406;9.984;2023-05-31T09:50:28;4.47;;;2.85;;
17993;SDS011;9122;48.406;9.984;2023-05-31T09:53:16;3.70;;;2.65;;
17993;SDS011;9122;48.406;9.984;2023-05-31T09:56:01;2.42;;;2.22;;
17993;SDS011;9122;48.406;9.984;2023-05-31T09:58:50;4.32;;;2.65;;
17993;SDS011;9122;48.406;9.984;2023-05-31T10:01:35;4.28;;;2.60;;
17993;SDS011;9122;48.406;9.984;2023-05-31T10:04:20;3.00;;;2.25;;
17993;SDS011;9122;48.406;9.984;2023-05-31T10:07:04;4.32;;;3.40;;
17993;SDS011;9122;48.406;9.984;2023-05-31T10:09:49;2.70;;;2.50;;
17993;SDS011;9122;48.406;9.984;2023-05-31T10:12:34;3.92;;;2.60;;
17993;SDS011;9122;48.406;9.984;2023-05-31T10:15:35;4.18;;;3.20;;
17993;SDS011;9122;48.406;9.984;2023-05-31T10:18:20;9.15;;;2.33;;
17993;SDS011;9122;48.406;9.984;2023-05-31T10:21:10;3.25;;;2.70;;
17993;SDS011;9122;48.406;9.984;2023-05-31T10:26:56;2.97;;;2.67;;
17993;SDS011;9122;48.406;9.984;2023-05-31T10:29:49;2.97;;;2.65;;
17993;SDS011;9122;48.406;9.984;2023-05-31T10:32:43;2.92;;;2.33;;
17993;SDS011;9122;48.406;9.984;2023-05-31T10:35:34;3.65;;;2.95;;
17993;SDS011;9122;48.406;9.984;2023-05-31T10:38:21;2.58;;;2.33;;
17993;SDS011;9122;48.406;9.984;2023-05-31T10:41:14;3.42;;;2.47;;
17993;SDS011;9122;48.406;9.984;2023-05-31T10:44:07;2.63;;;2.42;;
17993;SDS011;9122;48.406;9.984;2023-05-31T10:46:56;2.78;;;2.58;;
17993;SDS011;9122;48.406;9.984;2023-05-31T10:49:46;5.50;;;3.15;;
17993;SDS011;9122;48.406;9.984;2023-05-31T10:52:32;3.03;;;2.65;;
17993;SDS011;9122;48.406;9.984;2023-05-31T10:55:18;2.35;;;2.15;;
17993;SDS011;9122;48.406;9.984;2023-05-31T10:58:03;2.83;;;2.60;;
17993;SDS011;9122;48.406;9.984;2023-05-31T11:00:48;2.55;;;2.35;;
17993;SDS011;9122;48.406;9.984;2023-05-31T11:03:35;3.10;;;2.50;;
17993;SDS011;9122;48.406;9.984;2023-05-31T11:06:28;4.18;;;2.65;;
17993;SDS011;9122;48.406;9.984;2023-05-31T11:09:16;3.67;;;2.60;;
17993;SDS011;9122;48.406;9.984;2023-05-31T11:12:02;6.32;;;2.50;;
17993;SDS011;9122;48.406;9.984;2023-05-31T11:14:58;4.03;;;2.55;;
17993;SDS011;9122;48.406;9.984;2023-05-31T11:17:51;2.88;;;2.35;;
17993;SDS011;9122;48.406;9.984;2023-05-31T11:20:37;3.67;;;2.40;;
17993;SDS011;9122;48.406;9.984;2023-05-31T11:23:22;2.92;;;2.55;;
17993;SDS011;9122;48.406;9.984;2023-05-31T11:26:15;4.47;;;2.55;;
17993;SDS011;9122;48.406;9.984;2023-05-31T11:29:01;2.42;;;2.25;;
17993;SDS011;9122;48.406;9.984;2023-05-31T11:34:35;6.80;;;2.78;;
17993;SDS011;9122;48.406;9.984;2023-05-31T11:37:38;3.35;;;2.25;;
17993;SDS011;9122;48.406;9.984;2023-05-31T11:40:24;3.10;;;2.08;;
17993;SDS011;9122;48.406;9.984;2023-05-31T11:43:08;3.08;;;2.22;;
17993;SDS011;9122;48.406;9.984;2023-05-31T11:45:55;2.92;;;2.42;;
17993;SDS011;9122;48.406;9.984;2023-05-31T11:48:40;4.63;;;2.10;;
17993;SDS011;9122;48.406;9.984;2023-05-31T11:51:29;3.30;;;2.35;;
17993;SDS011;9122;48.406;9.984;2023-05-31T11:54:14;3.15;;;2.53;;
17993;SDS011;9122;48.406;9.984;2023-05-31T11:56:59;2.63;;;2.28;;
17993;SDS011;9122;48.406;9.984;2023-05-31T11:59:44;5.50;;;2.30;;
17993;SDS011;9122;48.406;9.984;2023-05-31T12:02:29;4.68;;;2.55;;
17993;SDS011;9122;48.406;9.984;2023-05-31T12:05:14;3.15;;;2.83;;
17993;SDS011;9122;48.406;9.984;2023-05-31T12:07:59;3.05;;;2.17;;
17993;SDS011;9122;48.406;9.984;2023-05-31T12:10:43;3.67;;;2.38;;
17993;SDS011;9122;48.406;9.984;2023-05-31T12:13:29;3.03;;;2.72;;
17993;SDS011;9122;48.406;9.984;2023-05-31T12:16:14;2.90;;;2.10;;
17993;SDS011;9122;48.406;9.984;2023-05-31T12:18:59;4.20;;;2.58;;
17993;SDS011;9122;48.406;9.984;2023-05-31T12:21:43;2.88;;;2.55;;
17993;SDS011;9122;48.406;9.984;2023-05-31T12:24:29;2.78;;;2.40;;
17993;SDS011;9122;48.406;9.984;2023-05-31T12:27:14;5.43;;;2.47;;
17993;SDS011;9122;48.406;9.984;2023-05-31T12:30:00;3.15;;;2.88;;
17993;SDS011;9122;48.406;9.984;2023-05-31T12:32:46;6.22;;;2.58;;
17993;SDS011;9122;48.406;9.984;2023-05-31T12:35:30;2.45;;;2.25;;
17993;SDS011;9122;48.406;9.984;2023-05-31T12:38:27;3.97;;;2.90;;
17993;SDS011;9122;48.406;9.984;2023-05-31T12:41:12;4.10;;;2.42;;
17993;SDS011;9122;48.406;9.984;2023-05-31T12:43:59;3.72;;;2.13;;
17993;SDS011;9122;48.406;9.984;2023-05-31T12:46:44;2.80;;;2.60;;
17993;SDS011;9122;48.406;9.984;2023-05-31T12:49:30;3.42;;;2.30;;
17993;SDS011;9122;48.406;9.984;2023-05-31T12:52:16;2.38;;;2.03;;
17993;SDS011;9122;48.406;9.984;2023-05-31T12:55:01;2.28;;;1.98;;
17993;SDS011;9122;48.406;9.984;2023-05-31T12:57:45;4.40;;;2.60;;
17993;SDS011;9122;48.406;9.984;2023-05-31T13:00:30;3.42;;;2.40;;
17993;SDS011;9122;48.406;9.984;2023-05-31T13:03:15;4.45;;;2.15;;
17993;SDS011;9122;48.406;9.984;2023-05-31T13:05:59;4.63;;;2.47;;
17993;SDS011;9122;48.406;9.984;2023-05-31T13:08:45;2.00;;;1.90;;
17993;SDS011;9122;48.406;9.984;2023-05-31T13:11:31;2.38;;;2.17;;
17993;SDS011;9122;48.406;9.984;2023-05-31T13:14:20;3.20;;;2.50;;
17993;SDS011;9122;48.406;9.984;2023-05-31T13:17:06;2.78;;;2.17;;
17993;SDS011;9122;48.406;9.984;2023-05-31T13:19:51;3.25;;;2.25;;
17993;SDS011;9122;48.406;9.984;2023-05-31T13:22:35;8.18;;;2.22;;
17993;SDS011;9122;48.406;9.984;2023-05-31T13:25:19;2.75;;;2.55;;
17993;SDS011;9122;48.406;9.984;2023-05-31T13:28:04;2.58;;;2.33;;
17993;SDS011;9122;48.406;9.984;2023-05-31T13:30:48;3.97;;;2.17;;
17993;SDS011;9122;48.406;9.984;2023-05-31T13:33:33;2.45;;;2.22;;
17993;SDS011;9122;48.406;9.984;2023-05-31T13:36:18;2.40;;;2.20;;
17993;SDS011;9122;48.406;9.984;2023-05-31T13:39:07;3.10;;;2.85;;
17993;SDS011;9122;48.406;9.984;2023-05-31T13:41:56;3.75;;;2.30;;
17993;SDS011;9122;48.406;9.984;2023-05-31T13:44:41;3.08;;;1.88;;
17993;SDS011;9122;48.406;9.984;2023-05-31T13:47:25;4.28;;;2.30;;
17993;SDS011;9122;48.406;9.984;2023-05-31T13:50:10;4.38;;;2.30;;
17993;SDS011;9122;48.406;9.984;2023-05-31T13:52:55;2.70;;;2.50;;
17993;SDS011;9122;48.406;9.984;2023-05-31T13:55:39;2.83;;;2.63;;
17993;SDS011;9122;48.406;9.984;2023-05-31T13:58:24;2.45;;;2.10;;
17993;SDS011;9122;48.406;9.984;2023-05-31T14:01:08;3.72;;;2.17;;
17993;SDS011;9122;48.406;9.984;2023-05-31T14:03:53;3.45;;;2.20;;
17993;SDS011;9122;48.406;9.984;2023-05-31T14:06:38;5.63;;;2.35;;
17993;SDS011;9122;48.406;9.984;2023-05-31T14:09:22;2.22;;;2.13;;
17993;SDS011;9122;48.406;9.984;2023-05-31T14:12:09;4.05;;;2.95;;
17993;SDS011;9122;48.406;9.984;2023-05-31T14:14:55;2.33;;;2.10;;
17993;SDS011;9122;48.406;9.984;2023-05-31T14:17:39;4.18;;;2.53;;
17993;SDS011;9122;48.406;9.984;2023-05-31T14:20:24;2.33;;;2.13;;
17993;SDS011;9122;48.406;9.984;2023-05-31T14:23:09;7.00;;;2.45;;
17993;SDS011;9122;48.406;9.984;2023-05-31T14:25:53;2.50;;;2.30;;
17993;SDS011;9122;48.406;9.984;2023-05-31T14:28:38;2.97;;;2.30;;
17993;SDS011;9122;48.406;9.984;2023-05-31T14:31:22;3.08;;;2.78;;
17993;SDS011;9122;48.406;9.984;2023-05-31T14:34:07;6.40;;;2.13;;
17993;SDS011;9122;48.406;9.984;2023-05-31T14:36:51;2.83;;;2.58;;
17993;SDS011;9122;48.406;9.984;2023-05-31T14:39:36;2.30;;;2.10;;
17993;SDS011;9122;48.406;9.984;2023-05-31T14:42:21;2.85;;;2.60;;
17993;SDS011;9122;48.406;9.984;2023-05-31T14:45:06;2.75;;;2.55;;
17993;SDS011;9122;48.406;9.984;2023-05-31T14:47:52;3.88;;;2.85;;
17993;SDS011;9122;48.406;9.984;2023-05-31T14:50:36;3.33;;;2.30;;
17993;SDS011;9122;48.406;9.984;2023-05-31T14:53:21;2.95;;;2.30;;
17993;SDS011;9122;48.406;9.984;2023-05-31T14:56:05;2.38;;;2.28;;
17993;SDS011;9122;48.406;9.984;2023-05-31T14:58:50;2.88;;;2.60;;
17993;SDS011;9122;48.406;9.984;2023-05-31T15:01:35;2.72;;;2.45;;
17993;SDS011;9122;48.406;9.984;2023-05-31T15:04:20;3.15;;;2.85;;
17993;SDS011;9122;48.406;9.984;2023-05-31T15:07:04;3.30;;;3.00;;
17993;SDS011;9122;48.406;9.984;2023-05-31T15:09:48;2.75;;;2.55;;
17993;SDS011;9122;48.406;9.984;2023-05-31T15:12:33;5.07;;;3.22;;
17993;SDS011;9122;48.406;9.984;2023-05-31T15:15:17;4.38;;;3.00;;
17993;SDS011;9122;48.406;9.984;2023-05-31T15:18:02;2.78;;;2.58;;
17993;SDS011;9122;48.406;9.984;2023-05-31T15:20:49;3.22;;;2.90;;
17993;SDS011;9122;48.406;9.984;2023-05-31T15:23:34;3.63;;;3.30;;
17993;SDS011;9122;48.406;9.984;2023-05-31T15:26:19;3.22;;;2.92;;
17993;SDS011;9122;48.406;9.984;2023-05-31T15:29:05;3.28;;;2.95;;
17993;SDS011;9122;48.406;9.984;2023-05-31T15:31:50;4.65;;;2.90;;
17993;SDS011;9122;48.406;9.984;2023-05-31T15:34:35;3.08;;;2.88;;
17993;SDS011;9122;48.406;9.984;2023-05-31T15:37:20;2.55;;;2.28;;
17993;SDS011;9122;48.406;9.984;2023-05-31T15:40:05;3.05;;;2.85;;
17993;SDS011;9122;48.406;9.984;2023-05-31T15:42:50;3.13;;;2.83;;
17993;SDS011;9122;48.406;9.984;2023-05-31T15:45:34;7.90;;;2.70;;
17993;SDS011;9122;48.406;9.984;2023-05-31T15:48:19;8.27;;;2.75;;
17993;SDS011;9122;48.406;9.984;2023-05-31T15:51:04;3.50;;;2.47;;
17993;SDS011;9122;48.406;9.984;2023-05-31T15:53:49;3.05;;;2.85;;
17993;SDS011;9122;48.406;9.984;2023-05-31T15:56:34;4.40;;;3.10;;
17993;SDS011;9122;48.406;9.984;2023-05-31T15:59:18;9.35;;;3.38;;
17993;SDS011;9122;48.406;9.984;2023-05-31T16:02:02;3.40;;;3.03;;
17993;SDS011;9122;48.406;9.984;2023-05-31T16:04:47;3.95;;;3.45;;
17993;SDS011;9122;48.406;9.984;2023-05-31T16:07:31;3.28;;;3.00;;
17993;SDS011;9122;48.406;9.984;2023-05-31T16:10:15;3.65;;;3.35;;
17993;SDS011;9122;48.406;9.984;2023-05-31T16:13:00;9.52;;;3.67;;
17993;SDS011;9122;48.406;9.984;2023-05-31T16:15:46;3.80;;;3.47;;
17993;SDS011;9122;48.406;9.984;2023-05-31T16:18:30;3.30;;;3.00;;
17993;SDS011;9122;48.406;9.984;2023-05-31T16:21:15;4.30;;;3.50;;
17993;SDS011;9122;48.406;9.984;2023-05-31T16:24:00;4.10;;;3.78;;
17993;SDS011;9122;48.406;9.984;2023-05-31T16:26:44;4.03;;;3.45;;
17993;SDS011;9122;48.406;9.984;2023-05-31T16:29:29;3.25;;;2.95;;
17993;SDS011;9122;48.406;9.984;2023-05-31T16:32:13;5.55;;;3.63;;
17993;SDS011;9122;48.406;9.984;2023-05-31T16:35:00;5.03;;;3.72;;
17993;SDS011;9122;48.406;9.984;2023-05-31T16:37:45;4.22;;;3.80;;
17993;SDS011;9122;48.406;9.984;2023-05-31T16:40:29;4.57;;;3.72;;
17993;SDS011;9122;48.406;9.984;2023-05-31T16:43:14;3.80;;;3.50;;
17993;SDS011;9122;48.406;9.984;2023-05-31T16:45:58;4.05;;;3.50;;
17993;SDS011;9122;48.406;9.984;2023-05-31T16:48:44;5.80;;;3.50;;
17993;SDS011;9122;48.406;9.984;2023-05-31T16:51:29;3.97;;;3.67;;
17993;SDS011;9122;48.406;9.984;2023-05-31T16:54:15;4.20;;;3.90;;
17993;SDS011;9122;48.406;9.984;2023-05-31T16:57:00;5.40;;;3.25;;
17993;SDS011;9122;48.406;9.984;2023-05-31T16:59:44;5.22;;;3.97;;
17993;SDS011;9122;48.406;9.984;2023-05-31T17:02:29;4.10;;;3.35;;
17993;SDS011;9122;48.406;9.984;2023-05-31T17:05:13;4.45;;;4.05;;
17993;SDS011;9122;48.406;9.984;2023-05-31T17:07:58;3.90;;;3.60;;